Tihvin, Russia
Current Conditions -  °F | °C
As of 11:00 PM on Sunday 23 Nov 2014 (Local Time) from ULLI Reporting Station
Moderate Fog Moderate Fog  
Wind Chill: 30°   Ceiling: 5000
Heat Index: 30°   Visibility: 0.21mi
Dew Point: 30°   Wind: 0mph
Humidity: 100%   Direction: NA
Pressure: 30.59"   Gusts: NA
Location:  59.64°N, 33.51°E
Report Text: ULLI 232000Z 00000MPS 0350 R10R/0500V1300U FZFG SCT010 BKN050M01/M01 Q1036 60290050 10////// NOSIG
Loading
Personal Weather Stations






























Interactive Weather Map New forecast layout! Learn more

10-Day Weather Forecast

Advertisements
Track Severe Weather on mobile